Time;durP1;ratioP1;P1;durP2;ratioP2;P2;SDS_P1;SDS_P2;PMS_P1;PMS_P2;Temp;Humidity;BMP_temperature;BMP_pressure;BME280_temperature;BME280_humidity;BME280_pressure;Samples;Min_cycle;Max_cycle;Signal;HPM_P1;HPM_P2
2022/03/10 00:00:43;;;;;;;55.17;23.80;;;1.00;99.90;;;;;;5084854;28;20236;-82
2022/03/10 00:03:10;;;;;;;47.57;22.17;;;0.90;99.90;;;;;;5093686;28;20673;-82
2022/03/10 00:05:38;;;;;;;46.77;22.30;;;0.90;99.90;;;;;;5077799;28;20232;-82
2022/03/10 00:08:05;;;;;;;44.97;22.27;;;0.90;99.90;;;;;;5092365;28;20701;-83
2022/03/10 00:10:32;;;;;;;45.90;21.90;;;0.90;99.90;;;;;;5078612;28;20215;-83
2022/03/10 00:13:03;;;;;;;49.33;23.90;;;0.90;99.90;;;;;;5088786;28;20240;-82
2022/03/10 00:15:30;;;;;;;46.73;22.87;;;0.80;99.90;;;;;;5076682;28;20221;-81
2022/03/10 00:17:57;;;;;;;53.50;23.60;;;0.80;99.90;;;;;;5086563;28;20665;-82
2022/03/10 00:20:24;;;;;;;51.43;24.50;;;0.70;99.90;;;;;;5092143;28;20220;-81
2022/03/10 00:22:52;;;;;;;50.60;23.73;;;0.70;99.90;;;;;;5090331;28;20212;-82
2022/03/10 00:25:20;;;;;;;49.37;23.50;;;0.70;99.90;;;;;;5089856;28;20253;-82
2022/03/10 00:27:47;;;;;;;48.90;22.73;;;0.60;99.90;;;;;;5092451;28;20265;-83
2022/03/10 00:30:14;;;;;;;51.20;23.70;;;0.60;99.90;;;;;;5095154;28;20303;-82
2022/03/10 00:32:47;;;;;;;48.30;22.97;;;0.50;99.90;;;;;;5073209;28;20233;-83
2022/03/10 00:35:19;;;;;;;50.03;22.77;;;0.50;99.90;;;;;;5087397;28;20249;-83
2022/03/10 00:37:54;;;;;;;48.30;21.73;;;0.50;99.90;;;;;;5076852;28;20208;-82
2022/03/10 00:40:21;;;;;;;59.93;24.00;;;0.40;99.90;;;;;;5086201;28;20216;-82
2022/03/10 00:42:49;;;;;;;49.07;22.03;;;0.40;99.90;;;;;;5086460;28;20208;-82
2022/03/10 00:45:18;;;;;;;48.27;22.90;;;0.30;99.90;;;;;;5075894;28;20254;-82
2022/03/10 00:47:47;;;;;;;50.33;24.30;;;0.30;99.90;;;;;;5070297;28;20286;-81
2022/03/10 00:50:14;;;;;;;48.20;21.30;;;0.30;99.90;;;;;;5072068;28;20569;-81
2022/03/10 00:52:45;;;;;;;47.93;22.40;;;0.30;99.90;;;;;;5090405;28;20257;-83
2022/03/10 00:55:15;;;;;;;53.03;22.40;;;0.20;99.90;;;;;;5073208;28;20578;-81
2022/03/10 00:57:42;;;;;;;52.43;22.23;;;0.20;99.90;;;;;;5073367;28;20268;-81
2022/03/10 01:00:10;;;;;;;43.90;20.87;;;0.20;99.90;;;;;;5085537;28;20298;-83
2022/03/10 01:02:36;;;;;;;53.77;23.70;;;0.20;99.90;;;;;;5078763;28;20211;-83
2022/03/10 01:05:05;;;;;;;47.77;22.57;;;0.20;99.90;;;;;;5088449;28;20262;-82
2022/03/10 01:07:34;;;;;;;49.90;21.60;;;0.20;99.90;;;;;;5089218;28;20291;-83
2022/03/10 01:10:03;;;;;;;44.30;21.40;;;0.10;99.90;;;;;;5080716;28;20687;-83
2022/03/10 01:12:30;;;;;;;47.73;20.83;;;0.10;99.90;;;;;;5075062;28;20563;-82
2022/03/10 01:14:57;;;;;;;47.30;21.33;;;0.10;99.90;;;;;;5086676;28;20223;-82
2022/03/10 01:17:23;;;;;;;46.97;22.73;;;0.00;99.90;;;;;;5073975;28;20228;-82
2022/03/10 01:19:50;;;;;;;47.37;21.17;;;0.10;99.90;;;;;;5075887;28;20214;-82
2022/03/10 01:22:17;;;;;;;46.50;21.53;;;0.10;99.90;;;;;;5090496;28;20719;-84
2022/03/10 01:24:44;;;;;;;47.73;22.17;;;0.00;99.90;;;;;;5087640;28;20326;-83
2022/03/10 01:27:11;;;;;;;45.07;22.13;;;0.00;99.90;;;;;;5073170;28;20204;-83
2022/03/10 01:29:38;;;;;;;47.20;22.23;;;0.00;99.90;;;;;;5094591;28;20264;-83
2022/03/10 01:32:05;;;;;;;47.57;22.50;;;0.00;99.90;;;;;;5086412;28;21483;-85
2022/03/10 01:34:34;;;;;;;47.80;21.40;;;0.00;99.90;;;;;;5096169;28;20208;-82
2022/03/10 01:37:01;;;;;;;53.43;23.13;;;-0.10;99.90;;;;;;5095760;28;20226;-84
2022/03/10 01:39:27;;;;;;;49.43;23.27;;;0.00;99.90;;;;;;5075398;28;20247;-84
2022/03/10 01:41:54;;;;;;;53.23;22.27;;;-0.10;99.90;;;;;;5090125;28;20232;-83
2022/03/10 01:44:22;;;;;;;46.27;22.50;;;-0.10;99.90;;;;;;5082137;28;20203;-83
2022/03/10 01:46:49;;;;;;;46.90;22.87;;;-0.10;99.90;;;;;;5073178;28;20228;-82
2022/03/10 01:49:16;;;;;;;47.50;20.77;;;-0.10;99.90;;;;;;5086000;28;20203;-83
2022/03/10 01:51:43;;;;;;;49.63;22.30;;;-0.10;99.90;;;;;;5072081;28;20196;-84
2022/03/10 01:54:11;;;;;;;53.10;23.00;;;-0.20;99.90;;;;;;5078333;28;20244;-82
2022/03/10 01:56:38;;;;;;;44.50;22.80;;;-0.20;99.90;;;;;;5080680;28;20212;-83
2022/03/10 01:59:05;;;;;;;47.97;22.30;;;-0.30;99.90;;;;;;5092081;28;20520;-82
2022/03/10 02:01:32;;;;;;;49.73;22.80;;;-0.20;99.90;;;;;;5095519;28;20820;-82
2022/03/10 02:03:59;;;;;;;44.00;21.60;;;-0.30;99.90;;;;;;5076897;28;20196;-83
2022/03/10 02:06:26;;;;;;;57.23;24.20;;;-0.30;99.90;;;;;;5076158;28;20648;-83
2022/03/10 02:11:40;;;;;;;54.67;24.07;;;-0.30;99.90;;;;;;5082405;28;20212;-84
2022/03/10 02:19:39;;;;;;;53.23;22.53;;;-0.30;99.90;;;;;;5095285;28;20289;-84
2022/03/10 02:22:13;;;;;;;49.80;22.37;;;-0.30;99.90;;;;;;5089668;28;20686;-84
2022/03/10 02:24:41;;;;;;;50.70;22.27;;;-0.40;99.90;;;;;;5096820;28;20289;-84
2022/03/10 02:27:27;;;;;;;49.87;22.97;;;-0.40;99.90;;;;;;5096087;28;20234;-83
2022/03/10 02:29:57;;;;;;;52.00;24.60;;;-0.40;99.90;;;;;;5093414;28;20214;-85
2022/03/10 02:32:24;;;;;;;50.90;23.50;;;-0.40;99.90;;;;;;5091442;28;20365;-83
2022/03/10 02:34:51;;;;;;;51.20;23.53;;;-0.40;99.90;;;;;;5103568;28;20212;-82
2022/03/10 02:37:19;;;;;;;53.53;24.07;;;-0.40;99.90;;;;;;5088075;28;20217;-82
2022/03/10 02:39:46;;;;;;;50.97;22.80;;;-0.50;99.90;;;;;;5097431;28;20262;-83
2022/03/10 02:42:14;;;;;;;51.00;23.07;;;-0.50;99.90;;;;;;5101370;28;20247;-83
2022/03/10 02:44:45;;;;;;;52.10;22.07;;;-0.50;99.90;;;;;;5094535;28;20608;-83
2022/03/10 02:47:13;;;;;;;50.10;22.40;;;-0.50;99.90;;;;;;5101646;28;20220;-83
2022/03/10 02:49:41;;;;;;;51.10;22.50;;;-0.50;99.90;;;;;;5093065;28;20208;-84
2022/03/10 02:52:09;;;;;;;55.17;23.60;;;-0.50;99.90;;;;;;5094798;28;20201;-84
2022/03/10 02:54:42;;;;;;;47.33;20.73;;;-0.60;99.90;;;;;;5089446;28;20215;-82
2022/03/10 02:57:09;;;;;;;51.47;23.33;;;-0.60;99.90;;;;;;5098376;28;20665;-83
2022/03/10 02:59:36;;;;;;;53.13;23.93;;;-0.60;99.90;;;;;;5089774;28;20282;-83
2022/03/10 03:02:04;;;;;;;49.30;22.67;;;-0.60;99.90;;;;;;5078302;28;20231;-82
2022/03/10 03:04:31;;;;;;;52.17;22.77;;;-0.40;99.90;;;;;;5093257;28;20304;-83
2022/03/10 03:06:58;;;;;;;50.00;22.00;;;-0.60;99.90;;;;;;5097355;28;20216;-83
2022/03/10 03:09:25;;;;;;;46.80;22.10;;;-0.60;99.90;;;;;;5078878;28;20235;-82
2022/03/10 03:11:52;;;;;;;43.63;21.00;;;-0.70;99.90;;;;;;5076820;28;20265;-83
2022/03/10 03:14:22;;;;;;;49.13;22.73;;;-0.60;99.90;;;;;;5074952;28;20204;-83
2022/03/10 03:16:55;;;;;;;52.90;22.37;;;-0.70;99.90;;;;;;5097724;28;20227;-82
2022/03/10 03:19:24;;;;;;;46.73;21.97;;;-0.70;99.90;;;;;;5069499;28;20732;-83
2022/03/10 03:21:51;;;;;;;53.27;22.60;;;-0.70;99.90;;;;;;5076576;28;20234;-82
2022/03/10 03:24:18;;;;;;;57.10;22.10;;;-0.80;99.90;;;;;;5073837;28;20606;-83
2022/03/10 03:26:47;;;;;;;53.10;21.77;;;-0.80;99.90;;;;;;5075119;28;20204;-84
2022/03/10 03:29:14;;;;;;;54.70;22.50;;;-0.80;99.90;;;;;;5085986;28;20303;-83
2022/03/10 03:31:41;;;;;;;50.13;23.00;;;-0.80;99.90;;;;;;5079473;28;20216;-84
2022/03/10 03:34:11;;;;;;;48.70;22.23;;;-0.80;99.90;;;;;;5094570;28;20318;-83
2022/03/10 03:36:40;;;;;;;43.13;20.77;;;-0.80;99.90;;;;;;5099137;28;20549;-83
2022/03/10 03:39:07;;;;;;;46.40;22.60;;;-0.80;99.90;;;;;;5070973;28;20570;-83
2022/03/10 03:41:34;;;;;;;50.10;21.20;;;-1.00;99.90;;;;;;5073512;28;20749;-83
2022/03/10 03:44:02;;;;;;;51.07;21.50;;;-0.90;99.90;;;;;;5087574;28;20315;-83
2022/03/10 03:46:29;;;;;;;56.07;23.23;;;-0.90;99.90;;;;;;5089089;28;20311;-84
2022/03/10 03:48:56;;;;;;;53.07;23.50;;;-0.90;99.90;;;;;;5069358;28;20200;-82
2022/03/10 03:51:23;;;;;;;48.30;22.07;;;-0.90;99.90;;;;;;5073866;28;20204;-82
2022/03/10 03:53:50;;;;;;;53.40;22.47;;;-0.90;99.90;;;;;;5070178;28;20204;-83
2022/03/10 03:56:17;;;;;;;56.47;22.10;;;-1.00;99.90;;;;;;5072860;28;20210;-84
2022/03/10 03:58:44;;;;;;;55.33;23.57;;;-1.00;99.90;;;;;;5085689;28;20698;-83
2022/03/10 04:01:11;;;;;;;58.63;24.97;;;-1.00;99.90;;;;;;5090443;28;20218;-83
2022/03/10 04:03:38;;;;;;;51.13;22.37;;;-1.00;99.90;;;;;;5092149;28;20615;-83
2022/03/10 04:06:06;;;;;;;57.07;23.13;;;-1.00;99.90;;;;;;5090289;28;20292;-82
2022/03/10 04:08:36;;;;;;;55.13;23.43;;;-1.00;99.90;;;;;;5069083;28;20659;-83
2022/03/10 04:11:03;;;;;;;53.33;23.60;;;-1.10;99.90;;;;;;5068718;28;20208;-83
2022/03/10 04:13:30;;;;;;;52.87;23.60;;;-1.00;99.90;;;;;;5077018;28;20207;-84
2022/03/10 04:15:57;;;;;;;59.27;24.60;;;-1.20;99.90;;;;;;5076968;28;20296;-83
2022/03/10 04:18:24;;;;;;;56.83;24.13;;;-1.00;99.90;;;;;;5073050;28;20239;-82
2022/03/10 04:20:52;;;;;;;47.97;20.57;;;-1.10;99.90;;;;;;5094987;28;20211;-83
2022/03/10 04:23:19;;;;;;;51.50;23.03;;;-1.10;99.90;;;;;;5077490;28;20801;-84
2022/03/10 04:25:45;;;;;;;57.77;24.87;;;-1.10;99.90;;;;;;5070564;28;20731;-84
2022/03/10 04:28:13;;;;;;;51.27;23.27;;;-1.00;99.90;;;;;;5090018;28;20671;-83
2022/03/10 04:30:44;;;;;;;58.97;24.07;;;-1.10;99.90;;;;;;5073135;28;20243;-84
2022/03/10 04:33:12;;;;;;;51.43;23.20;;;-1.10;99.90;;;;;;5087204;28;20710;-83
2022/03/10 04:35:38;;;;;;;45.57;20.93;;;-1.20;99.90;;;;;;5076350;28;20660;-84
2022/03/10 04:38:10;;;;;;;50.87;22.60;;;-1.20;99.90;;;;;;5077225;28;20265;-85
2022/03/10 04:40:37;;;;;;;48.30;21.67;;;-1.20;99.90;;;;;;5069943;28;20243;-83
2022/03/10 04:43:04;;;;;;;55.13;24.00;;;-1.20;99.90;;;;;;5073016;28;20320;-83
2022/03/10 04:45:31;;;;;;;58.83;23.70;;;-1.30;99.90;;;;;;5067038;28;20258;-84
2022/03/10 04:47:58;;;;;;;57.10;24.70;;;-1.30;99.90;;;;;;5067060;28;20254;-83
2022/03/10 04:50:25;;;;;;;53.77;23.83;;;-1.30;99.90;;;;;;5072982;28;20269;-83
2022/03/10 04:52:52;;;;;;;51.00;21.97;;;-1.30;99.90;;;;;;5088921;28;20239;-82
2022/03/10 04:55:19;;;;;;;52.07;23.13;;;-1.30;99.90;;;;;;5085069;28;20243;-82
2022/03/10 04:57:50;;;;;;;55.90;23.80;;;-1.30;99.90;;;;;;5077408;28;20215;-83
2022/03/10 05:00:18;;;;;;;53.03;25.13;;;-1.30;99.90;;;;;;5076054;28;20249;-82
2022/03/10 05:02:49;;;;;;;54.77;23.53;;;-1.30;99.90;;;;;;5076257;28;20235;-85
2022/03/10 05:05:18;;;;;;;48.17;23.30;;;-1.30;99.90;;;;;;5071476;28;20663;-85
2022/03/10 05:07:46;;;;;;;48.40;22.40;;;-1.30;99.90;;;;;;5078609;28;20252;-84
2022/03/10 05:10:14;;;;;;;54.40;23.77;;;-1.30;99.90;;;;;;5088411;28;20233;-83
2022/03/10 05:12:46;;;;;;;56.60;23.50;;;-1.40;99.90;;;;;;5064700;28;20630;-83
2022/03/10 05:15:16;;;;;;;47.63;23.50;;;-1.40;99.90;;;;;;5076063;28;20224;-84
2022/03/10 05:17:43;;;;;;;47.20;22.20;;;-1.40;99.90;;;;;;5080114;28;20250;-83
2022/03/10 05:20:10;;;;;;;52.10;21.90;;;-1.40;99.90;;;;;;5076365;28;20254;-83
2022/03/10 05:22:50;;;;;;;56.57;23.33;;;-1.40;99.90;;;;;;5077637;28;20231;-83
2022/03/10 05:25:18;;;;;;;46.03;21.23;;;-1.40;99.90;;;;;;5080223;28;20666;-83
2022/03/10 05:27:46;;;;;;;46.57;21.30;;;-1.40;99.90;;;;;;5090801;28;20208;-83
2022/03/10 05:30:14;;;;;;;53.17;23.33;;;-1.40;99.90;;;;;;5078975;28;20307;-83
2022/03/10 05:32:41;;;;;;;53.83;22.73;;;-1.40;99.90;;;;;;5094009;28;20259;-82
2022/03/10 05:35:10;;;;;;;50.77;21.90;;;-1.40;99.90;;;;;;5095194;28;20273;-84
2022/03/10 05:37:40;;;;;;;46.87;22.33;;;-1.40;99.90;;;;;;5084145;28;20692;-83
2022/03/10 05:40:15;;;;;;;47.13;21.53;;;-1.30;99.90;;;;;;5070304;28;20234;-83
2022/03/10 05:42:43;;;;;;;51.10;22.63;;;-1.50;99.90;;;;;;5068486;28;20777;-83
2022/03/10 05:45:11;;;;;;;54.47;23.10;;;-1.50;99.90;;;;;;5083527;28;20340;-83
2022/03/10 05:47:39;;;;;;;56.50;23.77;;;-1.50;99.90;;;;;;5090554;28;20214;-83
2022/03/10 05:50:07;;;;;;;51.57;23.27;;;-1.50;99.90;;;;;;5091754;28;20648;-83
2022/03/10 05:52:34;;;;;;;53.67;22.97;;;-1.50;99.90;;;;;;5072714;28;20265;-83
2022/03/10 05:55:02;;;;;;;53.37;24.23;;;-1.50;99.90;;;;;;5074594;28;20715;-82
2022/03/10 05:57:29;;;;;;;51.80;22.33;;;-1.50;99.90;;;;;;5083225;28;20227;-84
2022/03/10 05:59:56;;;;;;;53.43;23.80;;;-1.50;99.90;;;;;;5098832;28;20210;-84
2022/03/10 06:02:24;;;;;;;54.83;25.37;;;-1.50;99.90;;;;;;5088601;28;20265;-84
2022/03/10 06:04:51;;;;;;;56.67;25.03;;;-1.50;99.90;;;;;;5101023;28;20208;-83
2022/03/10 06:07:18;;;;;;;58.60;25.00;;;-1.40;99.90;;;;;;5081221;28;20663;-83
2022/03/10 06:09:48;;;;;;;55.67;25.13;;;-1.50;99.90;;;;;;5096630;28;20201;-83
2022/03/10 06:12:27;;;;;;;58.93;24.17;;;-1.50;99.90;;;;;;5091779;28;20212;-84
2022/03/10 06:14:55;;;;;;;56.60;25.07;;;-1.50;99.90;;;;;;5086186;28;20200;-82
2022/03/10 06:17:22;;;;;;;54.13;23.07;;;-1.60;99.90;;;;;;5069064;28;20704;-83
2022/03/10 06:19:49;;;;;;;57.63;22.97;;;-1.50;99.90;;;;;;5088726;28;20204;-84
2022/03/10 06:22:21;;;;;;;52.43;24.07;;;-1.50;99.90;;;;;;5077341;28;20234;-84
2022/03/10 06:24:48;;;;;;;54.90;23.50;;;-1.50;99.90;;;;;;5092495;28;20391;-81
2022/03/10 06:27:16;;;;;;;54.30;25.60;;;-1.40;99.90;;;;;;5096645;28;20214;-81
2022/03/10 06:29:44;;;;;;;51.67;23.53;;;-1.40;99.90;;;;;;5090952;28;20298;-82
2022/03/10 06:32:14;;;;;;;54.23;24.03;;;-1.40;99.90;;;;;;5092047;28;20250;-81
2022/03/10 06:34:41;;;;;;;57.30;23.23;;;-1.40;99.90;;;;;;5072684;28;20210;-84
2022/03/10 06:37:12;;;;;;;72.63;27.60;;;-1.40;99.90;;;;;;5085576;28;20202;-82
2022/03/10 06:39:39;;;;;;;61.90;23.97;;;-1.30;99.90;;;;;;5089389;28;20211;-84
2022/03/10 06:42:08;;;;;;;54.83;25.20;;;-1.30;99.90;;;;;;5075326;28;20227;-82
2022/03/10 06:44:36;;;;;;;57.70;24.33;;;-1.10;99.90;;;;;;5090992;28;20665;-82
2022/03/10 06:47:05;;;;;;;55.40;25.17;;;-1.20;99.90;;;;;;5087657;28;20234;-83
2022/03/10 06:49:32;;;;;;;57.50;26.40;;;-1.10;99.90;;;;;;5076135;28;20227;-82
2022/03/10 06:51:59;;;;;;;59.37;25.50;;;-1.10;99.90;;;;;;5072518;28;20672;-83
2022/03/10 06:54:26;;;;;;;57.30;25.10;;;-1.10;99.90;;;;;;5075326;28;20713;-82
2022/03/10 06:56:56;;;;;;;63.13;25.20;;;-1.00;99.90;;;;;;5085662;28;20735;-83
2022/03/10 06:59:22;;;;;;;86.30;31.00;;;-0.90;99.90;;;;;;5071634;28;20236;-81
2022/03/10 07:01:50;;;;;;;83.17;35.23;;;-0.60;99.90;;;;;;5072398;28;20219;-81
2022/03/10 07:04:20;;;;;;;71.03;30.10;;;0.20;99.90;;;;;;5095479;28;20622;-83
2022/03/10 07:06:47;;;;;;;55.90;24.47;;;1.20;99.90;;;;;;5093725;28;20201;-82
2022/03/10 07:09:14;;;;;;;50.33;20.50;;;2.20;99.90;;;;;;5097753;28;20263;-83
2022/03/10 07:11:41;;;;;;;57.23;22.93;;;3.20;99.90;;;;;;5064150;28;20307;-83
2022/03/10 07:14:08;;;;;;;51.50;22.50;;;3.90;99.90;;;;;;5075759;28;20386;-81
2022/03/10 07:16:35;;;;;;;43.60;21.80;;;4.60;99.90;;;;;;5068577;28;20228;-82
2022/03/10 07:19:02;;;;;;;43.40;20.90;;;5.00;99.90;;;;;;5091278;28;20666;-83
2022/03/10 07:21:33;;;;;;;44.57;21.13;;;5.30;99.90;;;;;;5091086;28;20249;-83
2022/03/10 07:24:00;;;;;;;40.53;21.30;;;6.30;99.90;;;;;;5092606;28;20220;-82
2022/03/10 07:26:26;;;;;;;35.17;19.80;;;5.70;99.90;;;;;;5070853;28;20206;-82
2022/03/10 07:28:59;;;;;;;37.03;20.37;;;;;;;;;;5073664;28;20211;-81
2022/03/10 07:31:27;;;;;;;40.37;20.53;;;6.60;99.90;;;;;;5091188;28;21028;-82
2022/03/10 07:33:56;;;;;;;36.17;19.93;;;7.10;99.90;;;;;;5089544;28;20548;-82
2022/03/10 07:36:24;;;;;;;39.40;20.07;;;7.80;99.90;;;;;;5081040;28;20610;-83
2022/03/10 07:38:51;;;;;;;42.17;20.63;;;8.40;99.90;;;;;;5076864;28;20854;-85
2022/03/10 07:41:17;;;;;;;42.13;19.97;;;9.00;99.90;;;;;;5077954;28;20231;-80
2022/03/10 07:43:46;;;;;;;35.30;19.17;;;9.60;99.90;;;;;;5089066;28;20227;-83
2022/03/10 07:46:12;;;;;;;36.47;19.83;;;10.10;99.90;;;;;;5089712;28;20239;-83
2022/03/10 07:48:39;;;;;;;37.83;19.30;;;10.00;99.90;;;;;;5067548;28;20228;-83
2022/03/10 07:51:06;;;;;;;35.93;19.53;;;10.10;99.90;;;;;;5093226;28;20283;-82
2022/03/10 07:53:33;;;;;;;35.80;20.67;;;9.30;99.90;;;;;;5098677;28;20244;-81
2022/03/10 07:56:04;;;;;;;33.27;19.13;;;8.70;99.90;;;;;;5075606;28;20233;-82
2022/03/10 07:58:31;;;;;;;36.23;19.67;;;8.10;99.90;;;;;;5093371;28;20208;-81
2022/03/10 08:00:58;;;;;;;36.10;19.87;;;7.60;99.90;;;;;;5091485;28;20261;-82
2022/03/10 08:03:25;;;;;;;32.00;18.53;;;7.10;99.90;;;;;;5092257;28;20232;-82
2022/03/10 08:05:53;;;;;;;39.00;20.17;;;6.70;99.90;;;;;;5091881;28;20203;-81
2022/03/10 08:08:20;;;;;;;42.40;19.40;;;6.40;99.90;;;;;;5069518;28;20207;-82
2022/03/10 08:10:47;;;;;;;37.83;18.60;;;6.10;99.90;;;;;;5091949;28;20202;-80
2022/03/10 08:13:14;;;;;;;38.63;18.23;;;5.90;99.90;;;;;;5069830;28;20625;-81
2022/03/10 08:15:43;;;;;;;36.20;18.13;;;5.80;99.90;;;;;;5082613;28;20222;-81
2022/03/10 08:18:11;;;;;;;34.97;20.17;;;5.60;99.90;;;;;;5085144;28;20214;-81
2022/03/10 08:20:39;;;;;;;32.17;17.63;;;5.50;99.90;;;;;;5089159;28;20290;-82
2022/03/10 08:23:06;;;;;;;32.47;16.60;;;5.50;99.90;;;;;;5082903;28;20226;-79
2022/03/10 08:25:34;;;;;;;33.10;15.67;;;5.30;99.90;;;;;;5082231;28;20297;-80
2022/03/10 08:28:01;;;;;;;32.13;15.53;;;5.30;99.90;;;;;;5083901;28;20267;-82
2022/03/10 08:30:28;;;;;;;30.13;15.10;;;5.20;99.90;;;;;;5084560;28;20246;-83
2022/03/10 08:32:55;;;;;;;34.47;16.10;;;5.20;99.90;;;;;;5067064;28;20234;-82
2022/03/10 08:35:21;;;;;;;30.50;14.90;;;5.20;99.90;;;;;;5087183;28;20282;-83
2022/03/10 08:37:48;;;;;;;32.13;15.40;;;5.20;99.90;;;;;;5074292;28;20206;-83
2022/03/10 08:40:19;;;;;;;27.13;15.07;;;5.30;99.90;;;;;;5091029;28;20217;-83
2022/03/10 08:42:48;;;;;;;31.73;14.87;;;5.30;99.90;;;;;;5086145;28;20691;-81
2022/03/10 08:45:17;;;;;;;30.33;16.53;;;5.30;99.90;;;;;;5090684;28;20604;-82
2022/03/10 08:47:45;;;;;;;31.03;15.70;;;5.40;99.90;;;;;;5092474;28;20202;-84
2022/03/10 08:50:18;;;;;;;28.53;15.23;;;5.50;99.90;;;;;;5067740;28;20265;-83
2022/03/10 08:52:45;;;;;;;27.30;15.13;;;5.50;99.90;;;;;;5086828;28;20202;-82
2022/03/10 08:55:12;;;;;;;28.40;15.03;;;5.70;99.90;;;;;;5069664;28;20234;-82
2022/03/10 08:57:40;;;;;;;28.83;14.90;;;5.70;99.90;;;;;;5083428;28;20555;-81
2022/03/10 09:00:08;;;;;;;29.17;16.10;;;5.80;99.90;;;;;;5083483;28;20967;-82
2022/03/10 09:02:35;;;;;;;28.27;15.43;;;5.90;99.90;;;;;;5089946;28;20414;-82
2022/03/10 09:05:04;;;;;;;31.40;15.97;;;6.00;99.90;;;;;;5102176;28;20268;-85
2022/03/10 09:07:31;;;;;;;28.83;15.03;;;6.20;99.90;;;;;;5089730;28;20198;-82
2022/03/10 09:09:57;;;;;;;28.83;16.23;;;6.60;99.90;;;;;;5108134;28;20308;-83
2022/03/10 09:12:24;;;;;;;31.90;15.97;;;7.00;99.90;;;;;;5092768;28;20282;-86
2022/03/10 09:14:51;;;;;;;28.67;15.70;;;7.50;99.90;;;;;;5093100;28;20239;-82
2022/03/10 09:17:19;;;;;;;27.87;14.90;;;8.10;99.90;;;;;;5105990;28;20787;-81
2022/03/10 09:19:46;;;;;;;26.60;15.27;;;8.60;99.90;;;;;;5108185;28;20288;-82
2022/03/10 09:22:13;;;;;;;26.77;15.03;;;9.10;99.90;;;;;;5112621;28;20209;-82
2022/03/10 09:24:40;;;;;;;25.87;14.87;;;9.50;99.90;;;;;;5088816;28;20227;-81
2022/03/10 09:27:07;;;;;;;34.53;16.80;;;9.90;99.90;;;;;;5107096;28;20209;-85
2022/03/10 09:29:33;;;;;;;25.20;15.27;;;10.30;99.90;;;;;;5111575;28;20269;-82
2022/03/10 09:32:00;;;;;;;28.47;16.63;;;10.70;99.90;;;;;;5093186;28;20574;-80
2022/03/10 09:34:27;;;;;;;27.00;16.80;;;10.90;99.90;;;;;;5106053;28;20207;-83
2022/03/10 09:36:54;;;;;;;31.03;16.20;;;11.20;99.90;;;;;;5105283;28;20208;-81
2022/03/10 09:39:21;;;;;;;28.87;17.17;;;12.10;99.90;;;;;;5106422;28;20293;-82
2022/03/10 09:41:48;;;;;;;24.03;15.13;;;11.70;99.90;;;;;;5106861;28;20287;-81
2022/03/10 09:44:19;;;;;;;27.30;16.37;;;11.90;99.90;;;;;;5109533;28;20321;-85
2022/03/10 09:46:49;;;;;;;27.60;16.47;;;12.00;99.90;;;;;;5107724;28;20302;-82
2022/03/10 09:49:16;;;;;;;26.27;16.27;;;12.10;99.90;;;;;;5086484;28;20562;-83
2022/03/10 09:51:43;;;;;;;26.47;15.67;;;12.30;99.90;;;;;;5107774;28;20227;-84
2022/03/10 09:54:10;;;;;;;28.13;16.20;;;12.30;99.90;;;;;;5105570;28;20675;-85
2022/03/10 09:56:43;;;;;;;27.10;16.73;;;12.50;99.90;;;;;;5110199;28;20674;-83
2022/03/10 09:59:12;;;;;;;27.13;16.00;;;12.50;99.90;;;;;;5078211;27;20187;-84
2022/03/10 10:01:40;;;;;;;25.00;15.43;;;12.50;99.90;;;;;;5110670;27;20222;-84
2022/03/10 10:04:06;;;;;;;24.37;15.53;;;12.50;99.90;;;;;;5109094;27;20215;-84
2022/03/10 10:07:03;;;;;;;26.40;16.23;;;12.40;99.40;;;;;;5095367;27;20317;-86
2022/03/10 10:09:46;;;;;;;26.40;15.93;;;12.30;98.90;;;;;;5115034;27;20725;-82
2022/03/10 10:12:15;;;;;;;25.40;15.70;;;12.10;98.50;;;;;;5110396;27;20206;-82
2022/03/10 10:14:45;;;;;;;27.13;16.33;;;11.90;98.10;;;;;;5117068;27;20203;-85
2022/03/10 10:17:12;;;;;;;28.07;16.27;;;11.70;98.20;;;;;;5097620;27;20299;-80
2022/03/10 10:19:40;;;;;;;28.77;16.00;;;11.60;98.30;;;;;;5090902;28;20208;-83
2022/03/10 10:22:29;;;;;;;30.00;16.67;;;11.40;98.30;;;;;;5095402;27;20714;-82
2022/03/10 10:25:02;;;;;;;28.30;16.50;;;11.30;98.50;;;;;;5110048;27;20225;-82
2022/03/10 10:27:33;;;;;;;31.73;17.13;;;11.20;98.60;;;;;;5095901;28;20203;-82
2022/03/10 10:30:05;;;;;;;31.63;17.60;;;11.10;98.70;;;;;;5095658;28;20211;-82
2022/03/10 10:32:44;;;;;;;28.97;16.07;;;11.10;98.60;;;;;;5087901;28;20306;-81
2022/03/10 10:35:20;;;;;;;29.03;16.57;;;10.90;98.90;;;;;;5089894;28;20710;-85
2022/03/10 10:37:52;;;;;;;32.63;17.47;;;10.90;99.20;;;;;;5084018;28;20714;-84
2022/03/10 10:40:27;;;;;;;29.27;15.83;;;10.90;99.30;;;;;;5073312;28;20192;-81
2022/03/10 10:42:55;;;;;;;27.77;15.97;;;10.90;99.60;;;;;;5086944;28;20649;-83
2022/03/10 10:45:32;;;;;;;28.47;16.33;;;10.90;99.70;;;;;;5088597;28;20208;-83
2022/03/10 10:48:10;;;;;;;30.67;16.33;;;11.00;99.50;;;;;;5088300;28;20257;-82
2022/03/10 10:50:40;;;;;;;28.10;15.87;;;11.00;99.50;;;;;;5088578;28;20233;-81
2022/03/10 10:53:27;;;;;;;28.43;16.10;;;11.10;99.60;;;;;;5075941;28;20193;-81
2022/03/10 10:55:57;;;;;;;30.57;16.10;;;11.20;99.50;;;;;;5086889;28;20296;-82
2022/03/10 10:58:25;;;;;;;35.63;18.43;;;11.30;99.40;;;;;;5094415;28;20194;-83
2022/03/10 11:00:52;;;;;;;37.67;17.30;;;11.40;99.20;;;;;;5094885;28;20600;-83
2022/03/10 11:03:28;;;;;;;31.17;17.77;;;11.50;99.00;;;;;;5091712;28;20313;-83
2022/03/10 11:05:58;;;;;;;36.07;18.17;;;11.70;98.80;;;;;;5083980;28;20209;-82
2022/03/10 11:08:26;;;;;;;31.20;17.07;;;11.80;98.50;;;;;;5097213;28;20207;-81
2022/03/10 11:10:53;;;;;;;32.33;17.53;;;11.90;98.10;;;;;;5108021;28;20203;-82
2022/03/10 11:13:21;;;;;;;36.03;16.97;;;12.00;97.80;;;;;;5087775;28;20237;-81
2022/03/10 11:15:50;;;;;;;29.43;17.53;;;12.10;97.60;;;;;;5106257;28;20219;-83
2022/03/10 11:18:21;;;;;;;30.20;17.00;;;12.30;97.70;;;;;;5111596;28;20224;-81
2022/03/10 11:20:53;;;;;;;27.77;15.87;;;12.40;97.10;;;;;;5072217;28;20207;-82
2022/03/10 11:23:46;;;;;;;31.63;17.40;;;12.50;97.00;;;;;;5077705;28;20685;-82
2022/03/10 11:26:25;;;;;;;32.60;16.27;;;12.70;96.50;;;;;;5074645;28;20271;-81
2022/03/10 11:28:54;;;;;;;31.07;17.07;;;12.80;96.20;;;;;;5086393;28;20203;-82
2022/03/10 11:31:22;;;;;;;27.20;16.57;;;13.00;96.00;;;;;;5072082;28;20215;-82
2022/03/10 11:33:49;;;;;;;25.83;14.87;;;13.00;95.60;;;;;;5072880;28;20273;-81
2022/03/10 11:36:27;;;;;;;30.43;17.13;;;13.20;95.60;;;;;;5088878;28;20284;-83
2022/03/10 11:39:04;;;;;;;28.70;16.33;;;13.30;95.10;;;;;;5064457;28;20623;-82
2022/03/10 11:41:50;;;;;;;32.13;16.40;;;13.50;94.80;;;;;;5084783;28;20300;-82
2022/03/10 11:44:21;;;;;;;29.60;17.03;;;13.60;94.60;;;;;;5075562;28;20223;-82
2022/03/10 11:46:59;;;;;;;31.30;16.70;;;13.80;94.10;;;;;;5097325;28;20669;-83
2022/03/10 11:49:38;;;;;;;31.77;16.30;;;13.90;94.10;;;;;;5079616;28;20215;-82
2022/03/10 11:52:24;;;;;;;33.60;17.63;;;14.00;93.80;;;;;;5071080;28;20219;-79
2022/03/10 11:55:20;;;;;;;35.47;18.30;;;14.10;93.50;;;;;;5086220;28;20222;-79
2022/03/10 11:57:55;;;;;;;31.80;17.77;;;14.30;93.20;;;;;;5068132;28;20199;-81
2022/03/10 12:00:23;;;;;;;33.00;16.53;;;14.50;93.30;;;;;;5089049;28;20225;-82
2022/03/10 12:03:00;;;;;;;31.77;17.40;;;14.60;92.90;;;;;;5091567;28;20672;-81
2022/03/10 12:05:53;;;;;;;30.23;16.87;;;14.70;92.50;;;;;;5084974;28;20235;-83
2022/03/10 12:08:20;;;;;;;31.37;16.57;;;14.80;91.90;;;;;;5089319;28;20230;-83
2022/03/10 12:10:47;;;;;;;31.03;16.77;;;14.90;92.40;;;;;;5088952;28;20192;-83
2022/03/10 12:13:34;;;;;;;29.10;16.23;;;15.00;91.50;;;;;;5089244;28;21093;-82
2022/03/10 12:16:06;;;;;;;29.87;15.83;;;15.00;90.80;;;;;;5097543;28;20337;-83
2022/03/10 12:18:42;;;;;;;29.03;16.87;;;15.10;91.00;;;;;;5072949;28;20438;-82
2022/03/10 12:21:26;;;;;;;31.73;15.70;;;15.20;90.70;;;;;;5094178;28;20261;-81
2022/03/10 12:24:00;;;;;;;29.40;16.17;;;15.20;90.30;;;;;;5091022;28;20223;-81
2022/03/10 12:26:37;;;;;;;26.83;15.90;;;15.20;90.10;;;;;;5086655;28;20204;-81
2022/03/10 12:29:06;;;;;;;28.27;15.83;;;15.20;90.00;;;;;;5082994;28;20208;-82
2022/03/10 12:31:35;;;;;;;30.47;16.77;;;15.20;89.60;;;;;;5081867;28;20229;-81
2022/03/10 12:34:06;;;;;;;28.37;14.77;;;15.30;90.00;;;;;;5087523;28;20562;-81
2022/03/10 12:36:34;;;;;;;31.33;15.97;;;15.40;90.20;;;;;;5086439;28;20203;-82
2022/03/10 12:39:14;;;;;;;29.10;16.47;;;15.60;90.10;;;;;;5084105;28;20283;-83
2022/03/10 12:41:43;;;;;;;28.10;15.83;;;15.80;88.70;;;;;;5072125;28;20420;-83
2022/03/10 12:44:12;;;;;;;30.17;16.10;;;15.90;88.80;;;;;;5092467;28;20238;-83
2022/03/10 12:46:42;;;;;;;30.33;16.17;;;16.00;88.50;;;;;;5072759;28;20285;-83
2022/03/10 12:49:39;;;;;;;29.43;15.63;;;16.20;87.80;;;;;;5062899;28;20746;-84